SU1321 / RA-73176 7700 Squawk Report (27th of June, 2022)

Time Lat Lon Altitude Heading Speed Vertical Rate
2022-06-27 13:16:52 GMT 55.979416 37.409714 0 75 0 0
2022-06-27 13:16:42 GMT 55.979416 37.409691 0 75 2 0
2022-06-27 13:16:30 GMT 55.979404 37.409573 0 75 0 0
2022-06-27 13:16:14 GMT 55.979393 37.409508 0 75 3 0
2022-06-27 13:16:07 GMT 55.979370 37.409348 0 75 3 0
2022-06-27 13:16:01 GMT 55.979336 37.409157 0 75 4 0
2022-06-27 13:15:50 GMT 55.979298 37.408855 0 73 5 0
2022-06-27 13:15:38 GMT 55.979221 37.408405 0 30 6 0
2022-06-27 13:15:30 GMT 55.978996 37.408211 0 345 8 0
2022-06-27 13:15:17 GMT 55.978569 37.408405 0 343 8 0
2022-06-27 13:15:08 GMT 55.978287 37.408554 0 345 8 0
2022-06-27 13:14:58 GMT 55.977940 37.408695 0 345 9 0
2022-06-27 13:14:48 GMT 55.977566 37.408875 0 345 8 0
2022-06-27 13:14:37 GMT 55.977184 37.409073 0 345 8 0
2022-06-27 13:10:51 GMT 55.976212 37.446983 0 309 7 0
2022-06-27 13:10:42 GMT 55.977810 37.457886 0 256 136 0
2022-06-27 13:10:51 GMT 55.976212 37.446983 550 256 140 -576
2022-06-27 13:10:41 GMT 55.977810 37.457886 650 256 136 -640
2022-06-27 13:10:30 GMT 55.980423 37.475197 0 256 136 -640
2022-06-27 13:10:21 GMT 55.981018 37.479443 875 256 135 -768
2022-06-27 13:10:11 GMT 55.982605 37.490070 1,000 255 138 -768
2022-06-27 13:10:02 GMT 55.984222 37.500916 1,125 256 138 -576
2022-06-27 13:09:59 GMT 55.984512 37.503120 1,150 255 137 -768
2022-06-27 13:09:51 GMT 55.985954 37.512646 1,250 254 136 -512
2022-06-27 13:09:48 GMT 55.986420 37.515476 1,250 254 136 -512
2022-06-27 13:09:40 GMT 55.987679 37.523804 1,350 257 138 -832
2022-06-27 13:09:31 GMT 55.989258 37.534706 1,450 256 133 -576
2022-06-27 13:09:22 GMT 55.990631 37.544113 1,550 256 133 -640
2022-06-27 13:09:19 GMT 55.991215 37.548180 1,575 255 133 -640
2022-06-27 13:09:11 GMT 55.992378 37.555649 1,675 256 135 -768
2022-06-27 13:09:08 GMT 55.992828 37.558842 1,700 256 136 -768
2022-06-27 13:09:00 GMT 55.994110 37.567833 2,375 255 146 -832
2022-06-27 13:08:57 GMT 55.994476 37.570164 1,825 255 140 -768
2022-06-27 13:08:49 GMT 55.995827 37.579334 1,950 255 146 -768
2022-06-27 13:08:40 GMT 55.997593 37.591267 2,025 256 159 -512
2022-06-27 13:08:29 GMT 55.999550 37.604401 2,175 255 165 -960
2022-06-27 13:08:19 GMT 56.001457 37.617188 2,350 256 160 -320
2022-06-27 13:08:16 GMT 56.002251 37.622765 2,375 256 160 -192
2022-06-27 13:08:12 GMT 56.003082 37.628258 2,375 256 163 -128
2022-06-27 13:08:08 GMT 56.003586 37.631584 2,375 256 164 64
2022-06-27 13:08:05 GMT 56.004227 37.636166 2,375 256 165 0
2022-06-27 13:07:59 GMT 56.005554 37.645081 2,375 256 166 -64
2022-06-27 13:07:56 GMT 56.006020 37.648170 2,375 256 167 0
2022-06-27 13:07:53 GMT 56.006699 37.652641 2,375 256 167 0
2022-06-27 13:07:48 GMT 56.007507 37.658298 2,375 256 168 0
2022-06-27 13:07:45 GMT 56.008118 37.662296 2,375 256 167 -64
2022-06-27 13:07:42 GMT 56.008675 37.666367 2,375 256 167 0
2022-06-27 13:07:38 GMT 56.009560 37.672379 2,375 256 167 0
2022-06-27 13:07:33 GMT 56.010674 37.680016 2,375 256 166 -64
2022-06-27 13:07:28 GMT 56.011414 37.685352 2,375 256 165 64
2022-06-27 13:07:25 GMT 56.011932 37.688770 2,375 255 165 0
2022-06-27 13:07:20 GMT 56.013062 37.696007 2,375 254 167 128
2022-06-27 13:07:17 GMT 56.013840 37.700916 2,375 254 167 128
2022-06-27 13:07:14 GMT 56.014168 37.702930 2,375 254 170 -64
2022-06-27 13:07:08 GMT 56.015751 37.712200 2,375 251 171 -256
2022-06-27 13:06:58 GMT 56.018875 37.725803 2,375 239 170 0
2022-06-27 13:06:46 GMT 56.024643 37.737869 2,375 213 172 64
2022-06-27 13:06:37 GMT 56.032196 37.743698 2,375 198 181 64
2022-06-27 13:06:26 GMT 56.040298 37.748276 2,375 198 183 0
2022-06-27 13:06:22 GMT 56.043137 37.749855 2,350 198 184 64
2022-06-27 13:06:16 GMT 56.048630 37.753017 2,350 199 184 64
2022-06-27 13:06:10 GMT 56.053085 37.755547 2,350 200 183 0
2022-06-27 13:06:05 GMT 56.056915 37.757847 2,375 200 182 -64
2022-06-27 13:06:01 GMT 56.060112 37.759838 2,375 200 181 -128
2022-06-27 13:05:55 GMT 56.064957 37.763016 2,400 201 179 -256
2022-06-27 13:05:52 GMT 56.068451 37.765335 2,425 199 176 -448
2022-06-27 13:05:45 GMT 56.073101 37.768078 2,475 196 176 -384
2022-06-27 13:05:42 GMT 56.075134 37.769081 2,475 193 176 -448
2022-06-27 13:05:34 GMT 56.081341 37.770824 2,600 173 182 -1536
2022-06-27 13:05:31 GMT 56.084274 37.770309 2,700 165 183 -1536
2022-06-27 13:05:25 GMT 56.089600 37.767250 2,825 146 188 -960
2022-06-27 13:05:22 GMT 56.092140 37.764473 2,875 139 190 -768
2022-06-27 13:05:14 GMT 56.096703 37.756405 2,900 121 193 -64
2022-06-27 13:05:10 GMT 56.098343 37.751686 2,900 115 193 -64
2022-06-27 13:05:04 GMT 56.100586 37.742283 2,900 111 191 -192
2022-06-27 13:05:01 GMT 56.101776 37.736790 2,900 110 193 512
2022-06-27 13:04:54 GMT 56.103836 37.727135 2,850 110 203 0
2022-06-27 13:04:47 GMT 56.107407 37.709904 2,900 110 211 -320
2022-06-27 13:04:44 GMT 56.107407 37.709904 2,900 110 211 -320
2022-06-27 13:04:36 GMT 56.109879 37.697952 2,975 110 211 -832
2022-06-27 13:04:33 GMT 56.110855 37.693150 3,000 110 211 -832
2022-06-27 13:04:28 GMT 56.112259 37.686268 3,075 110 211 -960
2022-06-27 13:04:23 GMT 56.114319 37.676449 3,175 110 211 -960
2022-06-27 13:04:20 GMT 56.115463 37.670834 3,225 109 212 -1152
2022-06-27 13:04:13 GMT 56.117653 37.659931 3,350 109 211 -1088
2022-06-27 13:04:08 GMT 56.118988 37.653393 3,400 109 212 -1088
2022-06-27 13:04:03 GMT 56.120956 37.643322 3,650 110 207 -1216
2022-06-27 13:03:55 GMT 56.123474 37.630672 3,650 109 210 -1088
2022-06-27 13:03:52 GMT 56.124527 37.625595 3,725 110 210 -1024
2022-06-27 13:03:49 GMT 56.125893 37.619076 3,775 110 209 -960
2022-06-27 13:03:46 GMT 56.126587 37.615440 3,950 110 208 -1344
2022-06-27 13:03:42 GMT 56.129242 37.602791 3,950 110 208 -1216
2022-06-27 13:03:31 GMT 56.131851 37.590305 4,125 110 208 -1216
2022-06-27 13:03:22 GMT 56.134872 37.575905 4,275 110 210 -960
2022-06-27 13:03:19 GMT 56.135761 37.571697 4,325 110 211 -960
2022-06-27 13:03:16 GMT 56.136925 37.566116 4,375 110 211 -1152
2022-06-27 13:03:09 GMT 56.138973 37.555988 4,500 110 211 -1152
2022-06-27 13:03:05 GMT 56.140549 37.548439 4,575 110 212 -896
2022-06-27 13:03:00 GMT 56.142094 37.540970 4,650 110 213 -896
2022-06-27 13:02:55 GMT 56.144093 37.531357 4,750 110 213 -1088
2022-06-27 13:02:49 GMT 56.145817 37.522945 4,850 110 211 -1472
2022-06-27 13:02:40 GMT 56.149109 37.506824 5,050 109 211 -960
2022-06-27 13:02:33 GMT 56.151215 37.496426 5,175 109 213 -1152
2022-06-27 13:02:29 GMT 56.152542 37.489845 5,250 109 213 -1152
2022-06-27 13:02:23 GMT 56.154755 37.478828 5,375 109 214 -1088
2022-06-27 13:02:19 GMT 56.155884 37.473034 5,425 109 215 -960
2022-06-27 13:02:09 GMT 56.159180 37.456055 5,600 108 215 -1280
2022-06-27 13:02:00 GMT 56.162109 37.440289 5,925 108 215 -896
2022-06-27 13:01:52 GMT 56.165497 37.421848 5,925 108 215 -896
2022-06-27 13:01:48 GMT 56.165497 37.421848 6,050 108 215 -1152
2022-06-27 13:01:44 GMT 56.167046 37.413769 6,050 108 215 -1152
2022-06-27 13:01:41 GMT 56.167648 37.410526 6,075 109 214 -1216
2022-06-27 13:01:38 GMT 56.169930 37.398834 6,225 109 214 -1088
2022-06-27 13:01:28 GMT 56.172180 37.387558 6,325 111 215 -1024
2022-06-27 13:01:18 GMT 56.176483 37.369495 6,700 118 217 -1152
2022-06-27 13:01:14 GMT 56.177750 37.365189 6,575 119 218 -1024
2022-06-27 13:01:10 GMT 56.180031 37.357979 6,650 119 218 -1024
2022-06-27 13:01:07 GMT 56.181747 37.352600 6,700 116 219 -896
2022-06-27 13:01:00 GMT 56.184456 37.342957 6,800 112 219 -896
2022-06-27 13:00:55 GMT 56.186920 37.331715 6,925 123 231 -640
2022-06-27 13:00:51 GMT 56.187607 37.328049 6,925 108 220 -640
2022-06-27 13:00:46 GMT 56.189297 37.318928 6,975 108 222 -448
2022-06-27 13:00:36 GMT 56.192825 37.301498 7,050 117 228 -576
2022-06-27 13:00:30 GMT 56.196743 37.289829 7,175 129 233 -768
2022-06-27 13:00:27 GMT 56.198730 37.285683 7,200 156 244 -704
2022-06-27 13:00:17 GMT 56.219421 37.269871 7,300 169 246 -1088
2022-06-27 13:00:06 GMT 56.219421 37.269871 7,475 183 244 -1536
2022-06-27 12:59:59 GMT 56.227432 37.270618 7,650 186 239 -1600
2022-06-27 12:59:56 GMT 56.230774 37.271206 7,725 186 240 -1600
2022-06-27 12:59:46 GMT 56.252373 37.277126 8,050 194 240 -768
2022-06-27 12:59:36 GMT 56.252373 37.277126 8,050 200 238 -512
2022-06-27 12:59:26 GMT 56.263313 37.284508 8,175 200 236 -320
2022-06-27 12:59:18 GMT 56.271423 37.290096 8,200 200 236 -320
2022-06-27 12:59:14 GMT 56.274628 37.292091 8,475 183 251 -512
2022-06-27 12:59:08 GMT 56.280956 37.295406 8,250 192 238 -448
2022-06-27 12:59:04 GMT 56.285381 37.297127 8,300 188 238 -448
2022-06-27 12:58:57 GMT 56.292503 37.298412 8,325 185 241 -384
2022-06-27 12:58:54 GMT 56.296181 37.298927 8,350 185 242 -448
2022-06-27 12:58:48 GMT 56.304466 37.300041 8,425 184 244 -448
2022-06-27 12:58:44 GMT 56.307259 37.300385 8,450 184 245 -384
2022-06-27 12:58:33 GMT 56.319534 37.301830 8,500 184 247 -384
2022-06-27 12:58:24 GMT 56.330933 37.302746 8,600 183 253 -512
2022-06-27 12:58:14 GMT 56.343338 37.303410 8,675 181 260 -512
2022-06-27 12:58:06 GMT 56.351807 37.303577 8,750 181 265 -640
2022-06-27 12:58:03 GMT 56.355488 37.303650 8,775 180 267 -640
2022-06-27 12:57:56 GMT 56.364891 37.303562 8,850 179 270 0
2022-06-27 12:57:53 GMT 56.367874 37.303577 8,850 179 270 -384
2022-06-27 12:57:45 GMT 56.378082 37.303410 8,875 183 271 64
2022-06-27 12:57:42 GMT 56.381325 37.303650 8,875 188 272 64
2022-06-27 12:57:33 GMT 56.393520 37.308456 8,875 207 267 64
2022-06-27 12:57:25 GMT 56.401428 37.317394 8,850 225 259 128
2022-06-27 12:57:22 GMT 56.408432 37.333958 8,875 237 256 -192
2022-06-27 12:57:14 GMT 56.408432 37.333958 8,875 253 249 -192
2022-06-27 12:57:11 GMT 56.409676 37.339611 8,875 253 249 -192
2022-06-27 12:57:05 GMT 56.411629 37.354462 8,875 260 246 0
2022-06-27 12:57:02 GMT 56.412140 37.359524 8,875 255 247 64
2022-06-27 12:56:52 GMT 56.416565 37.380638 8,875 238 251 -64
2022-06-27 12:56:41 GMT 56.423965 37.396343 8,850 216 260 64
2022-06-27 12:56:30 GMT 56.436069 37.409306 8,850 208 274 64
2022-06-27 12:56:23 GMT 56.444031 37.417114 8,875 213 273 -128
2022-06-27 12:56:20 GMT 56.446289 37.419601 8,875 215 271 -64
2022-06-27 12:56:11 GMT 56.456738 37.432735 8,875 216 268 64
2022-06-27 12:56:04 GMT 56.463089 37.440823 8,875 216 269 0
2022-06-27 12:56:00 GMT 56.467209 37.446236 8,875 216 269 0
2022-06-27 12:55:53 GMT 56.477005 37.458969 8,875 216 270 0
2022-06-27 12:55:50 GMT 56.477501 37.459602 8,875 214 269 0
2022-06-27 12:55:42 GMT 56.485184 37.469559 8,875 216 270 64
2022-06-27 12:55:39 GMT 56.487881 37.473164 8,875 214 269 0
2022-06-27 12:55:30 GMT 56.498154 37.486435 8,875 216 269 -64
2022-06-27 12:55:19 GMT 56.508682 37.499748 8,875 213 268 0
2022-06-27 12:55:09 GMT 56.520840 37.510414 8,900 194 272 -256
2022-06-27 12:54:58 GMT 56.533688 37.515392 8,975 191 281 -576
2022-06-27 12:54:47 GMT 56.546864 37.519855 9,075 191 289 -576
2022-06-27 12:54:38 GMT 56.560783 37.524574 9,175 191 297 -832
2022-06-27 12:54:27 GMT 56.574749 37.529385 9,325 191 301 -1344
2022-06-27 12:54:20 GMT 56.583939 37.532459 9,500 191 303 -1408
2022-06-27 12:54:17 GMT 56.588470 37.533958 9,575 191 304 -1408
2022-06-27 12:54:10 GMT 56.597607 37.537006 9,725 191 305 -1344
2022-06-27 12:54:07 GMT 56.602589 37.538689 9,800 191 306 -1088
2022-06-27 12:54:00 GMT 56.611816 37.541740 9,900 191 312 -704
2022-06-27 12:53:57 GMT 56.616924 37.543385 9,925 191 314 -640
2022-06-27 12:53:50 GMT 56.626511 37.546551 10,000 191 319 -576
2022-06-27 12:53:46 GMT 56.631729 37.548347 10,025 191 322 -576
2022-06-27 12:53:40 GMT 56.642487 37.551868 10,100 191 328 -640
2022-06-27 12:53:36 GMT 56.647110 37.553501 10,125 191 330 -640
2022-06-27 12:53:26 GMT 56.662354 37.558563 10,300 191 334 -1344
2022-06-27 12:53:19 GMT 56.672832 37.562168 10,475 191 335 -1536
2022-06-27 12:53:16 GMT 56.678925 37.564232 10,575 191 335 -1536
2022-06-27 12:53:05 GMT 56.693737 37.569256 10,850 191 336 -1664
2022-06-27 12:52:59 GMT 56.704880 37.573071 11,075 191 334 -2176
2022-06-27 12:52:55 GMT 56.709457 37.574615 11,200 191 334 -2240
2022-06-27 12:52:48 GMT 56.719437 37.578049 11,500 191 333 -1536
2022-06-27 12:52:45 GMT 56.724602 37.579800 11,500 191 333 -1536
2022-06-27 12:52:35 GMT 56.740173 37.585175 11,775 191 333 -1600
2022-06-27 12:52:28 GMT 56.751389 37.589035 11,975 191 333 -1600
2022-06-27 12:52:24 GMT 56.755932 37.590607 12,050 191 333 -1600
2022-06-27 12:52:17 GMT 56.766823 37.594418 12,250 191 333 -1472
2022-06-27 12:52:13 GMT 56.772408 37.596455 12,350 191 333 -1792
2022-06-27 12:52:04 GMT 56.786747 37.601418 12,650 191 330 -2176
2022-06-27 12:51:54 GMT 56.801971 37.606644 13,025 191 328 -1792
2022-06-27 12:51:46 GMT 56.813934 37.610722 13,200 191 331 -1600
2022-06-27 12:51:42 GMT 56.818130 37.612209 13,275 191 331 -1600
2022-06-27 12:51:35 GMT 56.829994 37.616302 13,525 191 331 -1856
2022-06-27 12:51:32 GMT 56.833328 37.617359 13,575 191 331 -1856
2022-06-27 12:51:25 GMT 56.845821 37.621616 13,800 191 333 -1344
2022-06-27 12:51:22 GMT 56.848846 37.622593 13,850 191 333 -1344
2022-06-27 12:51:12 GMT 56.863724 37.627659 14,075 191 336 -1344
2022-06-27 12:51:02 GMT 56.879200 37.632957 14,300 191 339 -1280
2022-06-27 12:50:51 GMT 56.896179 37.638817 14,550 191 342 -1664
2022-06-27 12:50:42 GMT 56.911102 37.644054 14,850 191 341 -1984
2022-06-27 12:50:31 GMT 56.927986 37.649792 15,175 191 342 -1408
2022-06-27 12:50:21 GMT 56.943420 37.655041 15,375 191 345 -1216
2022-06-27 12:50:11 GMT 56.959305 37.660534 15,600 191 348 -1536
2022-06-27 12:50:00 GMT 56.975887 37.666271 15,900 191 349 -1856
2022-06-27 12:49:50 GMT 56.991760 37.671692 16,200 191 351 -1536
2022-06-27 12:49:39 GMT 57.009129 37.677700 16,400 191 353 -1472
2022-06-27 12:49:30 GMT 57.024857 37.683189 16,700 191 356 -1472
2022-06-27 12:49:19 GMT 57.041840 37.689198 16,925 191 360 -960
2022-06-27 12:49:09 GMT 57.057632 37.694778 17,050 191 367 -640
2022-06-27 12:49:00 GMT 57.074718 37.700825 17,150 191 375 -704
2022-06-27 12:48:49 GMT 57.092735 37.706940 17,350 187 380 -1408
2022-06-27 12:48:38 GMT 57.112610 37.709625 17,625 178 389 -1536
2022-06-27 12:48:28 GMT 57.128906 37.707825 17,850 174 396 -1536
2022-06-27 12:48:17 GMT 57.151474 37.704048 18,150 174 402 -1472
2022-06-27 12:48:08 GMT 57.166847 37.701447 18,375 174 405 -1536
2022-06-27 12:47:57 GMT 57.186630 37.698212 18,675 174 407 -1728
2022-06-27 12:47:47 GMT 57.205811 37.694977 18,950 174 409 -1792
2022-06-27 12:47:38 GMT 57.224293 37.691875 19,250 174 410 -1792
2022-06-27 12:47:25 GMT 57.247196 37.687977 19,625 174 412 -1792
2022-06-27 12:47:17 GMT 57.263302 37.685230 19,875 174 413 -1792
2022-06-27 12:47:06 GMT 57.283676 37.681816 20,175 174 415 -1792
2022-06-27 12:46:56 GMT 57.303818 37.678471 20,500 174 417 -1792
2022-06-27 12:46:45 GMT 57.324005 37.675121 20,800 174 419 -1792
2022-06-27 12:46:35 GMT 57.342316 37.672031 21,100 174 420 -1920
2022-06-27 12:46:25 GMT 57.362457 37.668663 21,425 174 421 -1984
2022-06-27 12:46:16 GMT 57.383011 37.665169 21,800 174 422 -1984
2022-06-27 12:46:02 GMT 57.407520 37.661045 22,200 174 423 -1984
2022-06-27 12:45:54 GMT 57.422325 37.658562 22,450 174 425 -1984
2022-06-27 12:45:44 GMT 57.441696 37.655209 22,800 174 426 -1984
2022-06-27 12:45:34 GMT 57.461517 37.651863 23,500 174 430 -1984
2022-06-27 12:45:24 GMT 57.482052 37.648464 23,450 174 430 -1984
2022-06-27 12:45:12 GMT 57.504822 37.644566 23,850 174 432 -2048
2022-06-27 12:45:03 GMT 57.524094 37.641308 24,175 174 434 -1984
2022-06-27 12:44:50 GMT 57.550690 37.636757 24,600 174 436 -2048
2022-06-27 12:44:40 GMT 57.570145 37.633495 24,950 174 438 -2048
2022-06-27 12:44:32 GMT 57.585258 37.630920 25,200 174 439 -2048
2022-06-27 12:44:23 GMT 57.604904 37.627556 25,525 174 441 -2048
2022-06-27 12:44:13 GMT 57.625805 37.623920 25,875 174 443 -2048
2022-06-27 12:43:58 GMT 57.654373 37.618992 26,350 174 445 -2048
2022-06-27 12:43:51 GMT 57.669571 37.616413 26,625 174 447 -2048
2022-06-27 12:43:35 GMT 57.703175 37.610630 26,950 174 449 -2112
2022-06-27 12:43:26 GMT 57.723495 37.607143 27,525 174 451 -2112
2022-06-27 12:43:05 GMT 57.765324 37.599884 28,250 174 456 -2304
2022-06-27 12:42:59 GMT 57.778519 37.597607 28,475 174 458 -2304
2022-06-27 12:42:22 GMT 57.854965 37.584408 29,625 174 463 -2176
2022-06-27 12:42:19 GMT 57.862427 37.583076 29,925 174 465 -2176
2022-06-27 12:41:00 GMT 58.037003 37.552185 32,825 174 476 -1088
2022-06-27 12:40:14 GMT 58.135071 37.534790 35,275 174 469 -2560
2022-06-27 12:39:53 GMT 58.181122 37.526817 35,650 174 470 -1984
2022-06-27 12:39:50 GMT 58.187595 37.525635 35,750 174 471 -1728
2022-06-27 12:39:40 GMT 58.208542 37.521942 35,950 174 472 -704
2022-06-27 12:39:29 GMT 58.230927 37.517956 36,000 174 474 0
2022-06-27 12:39:16 GMT 58.263977 37.512108 36,000 174 474 0
2022-06-27 12:39:09 GMT 58.275303 37.510071 36,000 174 474 0
2022-06-27 12:39:05 GMT 58.284851 37.508301 36,000 174 474 0
2022-06-27 12:38:10 GMT 58.404694 37.486771 36,000 174 475 0
2022-06-27 12:37:58 GMT 58.429733 37.482338 36,000 174 475 0
2022-06-27 12:37:51 GMT 58.448914 37.478886 36,000 174 475 -64
2022-06-27 12:37:39 GMT 58.472076 37.474823 36,000 174 475 0
2022-06-27 12:37:33 GMT 58.485996 37.472351 36,000 174 475 0
2022-06-27 12:37:12 GMT 58.532036 37.464020 35,975 174 475 64
2022-06-27 12:37:01 GMT 58.554523 37.459900 35,975 174 475 -64
2022-06-27 12:36:50 GMT 58.578728 37.455505 36,000 174 475 -64
2022-06-27 12:36:41 GMT 58.597229 37.452213 36,000 174 475 -64
2022-06-27 12:36:36 GMT 58.609688 37.449921 36,000 174 475 -64
2022-06-27 12:36:26 GMT 58.630371 37.446102 36,000 174 475 0
2022-06-27 12:36:20 GMT 58.645203 37.443356 36,000 174 475 0
2022-06-27 12:36:16 GMT 58.652435 37.442024 36,000 174 475 0
2022-06-27 12:36:09 GMT 58.667923 37.439117 36,000 174 476 -64
2022-06-27 12:36:06 GMT 58.674454 37.437950 36,000 174 476 -64
2022-06-27 12:35:56 GMT 58.696507 37.433990 36,000 174 476 0
2022-06-27 12:35:46 GMT 58.718811 37.429977 43,200 174 476 -64
2022-06-27 12:35:36 GMT 58.741104 37.425991 36,025 174 477 0
2022-06-27 12:35:02 GMT 58.813614 37.412968 36,025 174 478 0
2022-06-27 12:34:45 GMT 58.850735 37.406174 36,025 174 478 64
2022-06-27 12:34:44 GMT 58.854038 37.405605 36,025 174 479 64
2022-06-27 12:34:38 GMT 58.866982 37.403236 36,025 174 479 0
2022-06-27 12:34:16 GMT 58.915604 37.394348 36,000 174 479 0
2022-06-27 12:34:14 GMT 58.920235 37.393482 36,025 174 479 0
2022-06-27 12:34:03 GMT 58.943325 37.389126 36,000 174 479 64
2022-06-27 12:33:41 GMT 58.995277 37.379467 36,000 174 480 0
2022-06-27 12:33:33 GMT 59.010689 37.376625 36,000 174 479 0
2022-06-27 12:33:23 GMT 59.032940 37.372459 36,000 174 479 0
2022-06-27 12:33:13 GMT 59.055130 37.368347 36,000 174 479 0
2022-06-27 12:33:02 GMT 59.077789 37.364136 36,000 174 479 64
2022-06-27 12:32:53 GMT 59.099789 37.360050 36,000 174 479 0
2022-06-27 12:32:42 GMT 59.121964 37.355896 36,000 174 479 0
2022-06-27 12:32:32 GMT 59.145271 37.351528 36,000 174 478 0
2022-06-27 12:32:22 GMT 59.167007 37.347382 36,000 174 478 0
2022-06-27 12:32:11 GMT 59.190285 37.343002 36,000 174 478 0
2022-06-27 12:32:02 GMT 59.211792 37.339024 36,000 174 478 0
2022-06-27 12:31:51 GMT 59.233704 37.334930 36,000 174 478 64
2022-06-27 12:31:41 GMT 59.257416 37.330502 35,975 174 478 64
2022-06-27 12:31:30 GMT 59.279339 37.326336 35,975 174 478 0
2022-06-27 12:31:20 GMT 59.303688 37.321789 36,000 174 478 -64
2022-06-27 12:31:10 GMT 59.324730 37.317810 36,000 174 478 0
2022-06-27 12:31:01 GMT 59.346420 37.313740 36,000 174 478 -64
2022-06-27 12:30:50 GMT 59.367920 37.309662 36,025 174 477 -64
2022-06-27 12:30:38 GMT 59.394424 37.304718 36,025 174 477 0
2022-06-27 12:30:29 GMT 59.413239 37.301056 36,000 174 477 0
2022-06-27 12:30:19 GMT 59.435349 37.296661 36,000 174 477 64
2022-06-27 12:30:10 GMT 59.457031 37.292427 36,000 174 478 0
2022-06-27 12:29:59 GMT 59.480072 37.287781 36,000 174 478 0
2022-06-27 12:29:49 GMT 59.501770 37.283386 36,000 174 478 64
2022-06-27 12:29:39 GMT 59.524578 37.278694 36,000 173 478 -64
2022-06-27 12:29:29 GMT 59.546738 37.273960 36,025 173 478 0
2022-06-27 12:29:19 GMT 59.568878 37.269104 36,025 173 478 0
2022-06-27 12:29:08 GMT 59.591660 37.264111 36,025 173 478 0
2022-06-27 12:28:58 GMT 59.614929 37.259308 36,025 174 478 0
2022-06-27 12:28:48 GMT 59.636444 37.255646 36,025 176 477 0
2022-06-27 12:28:37 GMT 59.659206 37.252934 36,000 177 475 64
2022-06-27 12:28:28 GMT 59.681740 37.251228 36,000 177 475 0
2022-06-27 12:28:17 GMT 59.703415 37.249603 36,000 177 475 0
2022-06-27 12:28:07 GMT 59.725311 37.248009 36,000 177 474 0
2022-06-27 12:27:57 GMT 59.748047 37.246399 35,975 178 474 64
2022-06-27 12:27:46 GMT 59.770294 37.244934 35,975 178 474 64
2022-06-27 12:27:37 GMT 59.792130 37.243561 35,975 178 473 0
2022-06-27 12:27:26 GMT 59.815475 37.242004 35,975 178 473 -64
2022-06-27 12:27:16 GMT 59.836853 37.240540 35,975 177 473 -64
2022-06-27 12:27:06 GMT 59.859474 37.238823 36,000 177 472 -64
2022-06-27 12:26:56 GMT 59.881493 37.237213 36,000 177 472 -64
2022-06-27 12:26:45 GMT 59.903233 37.235413 36,000 177 472 64
2022-06-27 12:26:36 GMT 59.925671 37.233612 36,000 177 473 64
2022-06-27 12:26:25 GMT 59.947693 37.231907 35,975 177 473 0
2022-06-27 12:26:15 GMT 59.970337 37.230206 36,000 177 473 0
2022-06-27 12:26:05 GMT 59.992126 37.228592 36,000 177 473 0
2022-06-27 12:25:54 GMT 60.014774 37.226879 36,000 177 472 0
2022-06-27 12:25:45 GMT 60.036980 37.225212 36,000 178 472 0
2022-06-27 12:25:34 GMT 60.059368 37.223740 36,000 177 472 0
2022-06-27 12:25:24 GMT 60.080933 37.222153 36,000 177 472 0
2022-06-27 12:25:13 GMT 60.103821 37.220543 36,000 177 473 0
2022-06-27 12:25:04 GMT 60.125149 37.218933 36,000 177 473 -64
2022-06-27 12:24:53 GMT 60.147629 37.217419 36,025 177 474 -64
2022-06-27 12:24:43 GMT 60.170769 37.215694 36,025 178 474 0
2022-06-27 12:24:33 GMT 60.191719 37.214321 36,025 177 474 0
2022-06-27 12:24:23 GMT 60.214050 37.212494 36,000 177 474 64
2022-06-27 12:24:12 GMT 60.236828 37.209515 36,000 173 476 64
2022-06-27 12:24:02 GMT 60.258659 37.203041 36,000 168 480 0
2022-06-27 12:23:53 GMT 60.280956 37.192940 36,000 166 482 0
2022-06-27 12:23:42 GMT 60.302765 37.182468 36,000 166 481 0
2022-06-27 12:23:31 GMT 60.326019 37.171162 36,000 166 480 0
2022-06-27 12:23:22 GMT 60.347122 37.160877 36,000 166 481 0
2022-06-27 12:23:11 GMT 60.369312 37.150070 36,000 166 482 0
2022-06-27 12:23:02 GMT 60.390289 37.139946 36,000 166 481 0
2022-06-27 12:22:51 GMT 60.412792 37.129177 36,000 166 482 0
2022-06-27 12:22:41 GMT 60.434441 37.118877 36,000 166 482 0
2022-06-27 12:22:31 GMT 60.456741 37.108189 36,000 166 483 0
2022-06-27 12:22:21 GMT 60.478821 37.097515 36,000 166 482 0
2022-06-27 12:22:11 GMT 60.500870 37.086803 36,000 166 482 64
2022-06-27 12:21:59 GMT 60.524368 37.075352 35,975 166 480 256
2022-06-27 12:21:50 GMT 60.545013 37.065220 35,925 166 478 576
2022-06-27 12:21:39 GMT 60.567032 37.054516 35,825 166 476 640
2022-06-27 12:21:29 GMT 60.588806 37.043739 35,700 166 475 768
2022-06-27 12:21:20 GMT 60.610500 37.033146 35,550 166 474 704
2022-06-27 12:21:09 GMT 60.632427 37.022354 35,450 166 475 704
2022-06-27 12:20:59 GMT 60.653934 37.011761 35,325 166 476 640
2022-06-27 12:20:49 GMT 60.675442 37.001167 35,225 166 476 704
2022-06-27 12:20:38 GMT 60.697449 36.990398 35,100 166 475 768
2022-06-27 12:20:28 GMT 60.718460 36.979980 35,000 166 473 320
2022-06-27 12:20:18 GMT 60.740112 36.969372 35,000 166 473 64
2022-06-27 12:20:08 GMT 60.762405 36.958290 35,000 166 473 0
2022-06-27 12:19:58 GMT 60.783630 36.947807 34,975 166 473 0
2022-06-27 12:19:48 GMT 60.805275 36.937016 34,975 166 473 0
2022-06-27 12:19:37 GMT 60.827316 36.926090 34,975 166 474 0
2022-06-27 12:19:28 GMT 60.848335 36.915730 34,975 166 473 -64
2022-06-27 12:19:17 GMT 60.869980 36.905064 35,000 166 473 -64
2022-06-27 12:19:07 GMT 60.892044 36.894173 35,000 166 473 0
2022-06-27 12:18:57 GMT 60.913231 36.883656 35,000 166 473 0
2022-06-27 12:18:47 GMT 60.934662 36.872959 34,975 166 474 0
2022-06-27 12:18:37 GMT 60.956955 36.861877 35,000 166 474 0
2022-06-27 12:18:26 GMT 60.977985 36.851383 35,000 166 474 0
2022-06-27 12:18:16 GMT 60.999863 36.840492 35,000 166 474 0
2022-06-27 12:18:06 GMT 61.021957 36.829487 35,000 166 474 -64
2022-06-27 12:17:55 GMT 61.043018 36.818913 35,025 166 474 -64
2022-06-27 12:17:46 GMT 61.064667 36.808025 35,025 166 474 0
2022-06-27 12:17:35 GMT 61.086594 36.796940 35,025 166 475 0
2022-06-27 12:17:25 GMT 61.108292 36.785954 35,025 166 475 0
2022-06-27 12:17:15 GMT 61.129807 36.775066 35,025 166 475 0
2022-06-27 12:17:04 GMT 61.152370 36.763611 35,000 166 476 0
2022-06-27 12:16:55 GMT 61.173271 36.753033 35,000 166 476 0
2022-06-27 12:16:44 GMT 61.195679 36.741714 35,000 166 476 0
2022-06-27 12:16:34 GMT 61.217030 36.730854 35,000 166 476 0
2022-06-27 12:16:23 GMT 61.239258 36.719547 35,000 166 477 0
2022-06-27 12:16:14 GMT 61.260372 36.708679 35,000 166 477 0
2022-06-27 12:16:04 GMT 61.282608 36.697281 35,000 166 477 0
2022-06-27 12:15:53 GMT 61.304176 36.686199 35,000 166 477 0
2022-06-27 12:15:43 GMT 61.325729 36.675110 35,000 166 477 0
2022-06-27 12:15:33 GMT 61.347977 36.663731 35,000 166 477 0
2022-06-27 12:15:22 GMT 61.369766 36.652550 35,000 166 477 0
2022-06-27 12:15:13 GMT 61.391373 36.641563 35,000 166 477 0
2022-06-27 12:15:02 GMT 61.413162 36.630283 35,000 166 477 0
2022-06-27 12:14:52 GMT 61.434525 36.619366 35,000 166 477 0
2022-06-27 12:14:42 GMT 61.456741 36.607918 35,000 166 477 64
2022-06-27 12:14:32 GMT 61.478073 36.596832 35,000 166 477 64
2022-06-27 12:14:21 GMT 61.500721 36.585083 34,975 166 477 64
2022-06-27 12:14:11 GMT 61.521854 36.574097 34,975 166 477 0
2022-06-27 12:14:01 GMT 61.543854 36.562599 35,000 166 477 -64
2022-06-27 12:13:51 GMT 61.565414 36.551315 35,000 166 477 0
2022-06-27 12:13:41 GMT 61.586746 36.540234 35,000 166 477 0
2022-06-27 12:13:30 GMT 61.609371 36.528423 35,000 166 477 0
2022-06-27 12:13:21 GMT 61.630508 36.517334 35,000 166 477 0
2022-06-27 12:13:10 GMT 61.652893 36.505608 34,975 166 477 0
2022-06-27 12:13:00 GMT 61.674034 36.494549 35,000 166 477 -64
2022-06-27 12:12:49 GMT 61.696243 36.482948 35,000 166 477 -64
2022-06-27 12:12:40 GMT 61.717140 36.471966 35,000 165 477 0
2022-06-27 12:12:30 GMT 61.738880 36.460468 35,000 165 477 0
2022-06-27 12:12:19 GMT 61.761475 36.448616 35,000 165 477 0
2022-06-27 12:12:09 GMT 61.782806 36.437332 35,000 165 477 0
2022-06-27 12:11:58 GMT 61.805237 36.425564 35,000 166 478 0
2022-06-27 12:11:49 GMT 61.825981 36.414593 35,000 165 478 0
2022-06-27 12:11:39 GMT 61.848221 36.402905 35,000 165 478 0
2022-06-27 12:11:28 GMT 61.870422 36.391033 35,000 165 478 0
2022-06-27 12:11:18 GMT 61.891384 36.379902 35,000 165 478 0
2022-06-27 12:11:08 GMT 61.913639 36.368000 35,000 165 478 0
2022-06-27 12:10:58 GMT 61.934818 36.356709 35,000 165 479 0
2022-06-27 12:10:48 GMT 61.956654 36.345013 35,000 165 479 0
2022-06-27 12:10:37 GMT 61.978500 36.333359 35,000 165 479 0
2022-06-27 12:10:27 GMT 62.000336 36.321686 35,000 165 478 0
2022-06-27 12:10:17 GMT 62.022152 36.310017 35,000 165 479 0
2022-06-27 12:10:06 GMT 62.044830 36.297943 35,000 165 479 0
2022-06-27 12:09:56 GMT 62.066254 36.286469 35,000 165 479 0
2022-06-27 12:09:47 GMT 62.088303 36.274517 35,000 165 479 0
2022-06-27 12:09:36 GMT 62.109947 36.262920 35,000 165 479 0
2022-06-27 12:09:26 GMT 62.131577 36.251156 35,000 165 479 0
2022-06-27 12:09:15 GMT 62.154732 36.238613 35,000 165 479 0
2022-06-27 12:09:05 GMT 62.175541 36.227310 35,000 165 479 0
2022-06-27 12:08:56 GMT 62.197220 36.215618 35,000 165 480 0
2022-06-27 12:08:45 GMT 62.218872 36.203918 35,000 165 480 0
2022-06-27 12:08:35 GMT 62.240528 36.192135 35,000 165 480 0
2022-06-27 12:08:24 GMT 62.263275 36.179810 35,000 165 480 0
2022-06-27 12:08:14 GMT 62.284927 36.168011 35,000 165 480 0
2022-06-27 12:08:05 GMT 62.306396 36.156311 35,000 165 480 0
2022-06-27 12:07:54 GMT 62.328506 36.144207 35,000 165 480 0
2022-06-27 12:07:44 GMT 62.350578 36.132133 35,000 165 479 0
2022-06-27 12:07:33 GMT 62.372910 36.119892 35,000 165 479 -64
2022-06-27 12:07:24 GMT 62.393921 36.108295 35,000 165 479 0
2022-06-27 12:07:14 GMT 62.416397 36.095886 35,000 165 479 0
2022-06-27 12:07:03 GMT 62.437630 36.084171 35,000 165 479 0
2022-06-27 12:06:53 GMT 62.459324 36.072235 35,000 165 479 0
2022-06-27 12:06:43 GMT 62.481155 36.060192 35,000 165 480 0
2022-06-27 12:06:32 GMT 62.504108 36.047516 35,000 165 481 0
2022-06-27 12:06:22 GMT 62.524933 36.035969 35,000 165 481 0
2022-06-27 12:06:12 GMT 62.547501 36.023357 35,000 165 481 64
2022-06-27 12:06:02 GMT 62.568741 36.011555 35,000 165 480 -64
2022-06-27 12:05:52 GMT 62.590649 35.999344 35,000 165 481 -64
2022-06-27 12:05:41 GMT 62.613178 35.986774 35,000 165 481 0
2022-06-27 12:05:31 GMT 62.634842 35.974628 35,000 165 481 0
2022-06-27 12:05:22 GMT 62.656540 35.962421 35,000 165 481 -64
2022-06-27 12:05:11 GMT 62.678818 35.949905 35,000 165 481 0
2022-06-27 12:05:01 GMT 62.700760 35.937500 35,000 165 481 0
2022-06-27 12:04:51 GMT 62.721817 35.925598 35,000 165 481 64
2022-06-27 12:04:41 GMT 62.743515 35.913288 35,000 165 482 64
2022-06-27 12:04:31 GMT 62.765636 35.900681 35,000 165 482 0
2022-06-27 12:04:20 GMT 62.787796 35.888214 35,000 165 482 0
2022-06-27 12:04:10 GMT 62.809753 35.875751 35,000 165 482 0
2022-06-27 12:03:59 GMT 62.832367 35.863037 35,000 165 482 0
2022-06-27 12:03:50 GMT 62.853058 35.851337 35,000 165 482 0
2022-06-27 12:03:40 GMT 62.875454 35.838669 35,000 165 483 -64
2022-06-27 12:03:29 GMT 62.897186 35.826313 35,000 165 482 0
2022-06-27 12:03:19 GMT 62.919388 35.813702 35,000 165 482 0
2022-06-27 12:03:09 GMT 62.941544 35.800884 35,000 165 483 0
2022-06-27 12:02:59 GMT 62.964386 35.787861 35,000 165 483 0
2022-06-27 12:02:49 GMT 62.985306 35.775860 35,000 165 483 0
2022-06-27 12:02:38 GMT 63.007278 35.763348 35,000 165 483 0
2022-06-27 12:02:28 GMT 63.028839 35.750835 35,000 165 483 0
2022-06-27 12:02:18 GMT 63.050816 35.738209 35,000 165 483 0
2022-06-27 12:02:07 GMT 63.073441 35.725109 35,000 165 483 0
2022-06-27 12:01:57 GMT 63.095215 35.712482 35,000 165 483 0
2022-06-27 12:01:48 GMT 63.117004 35.699871 35,000 165 483 -64
2022-06-27 12:01:37 GMT 63.139664 35.686749 35,000 165 483 0
2022-06-27 12:01:27 GMT 63.161041 35.674335 35,000 165 484 0
2022-06-27 12:01:16 GMT 63.183517 35.661213 35,000 165 484 0
2022-06-27 12:01:06 GMT 63.205307 35.648521 35,000 165 485 0
2022-06-27 12:00:57 GMT 63.227783 35.635319 35,000 165 485 0
2022-06-27 12:00:46 GMT 63.249828 35.622398 35,000 165 485 0
2022-06-27 12:00:36 GMT 63.271706 35.609547 35,000 165 486 0
2022-06-27 12:00:26 GMT 63.293354 35.596912 35,000 165 486 0
2022-06-27 12:00:16 GMT 63.315216 35.583977 35,000 165 486 0
2022-06-27 12:00:06 GMT 63.338184 35.570435 35,000 165 486 0
2022-06-27 11:59:55 GMT 63.359390 35.557991 35,000 165 486 0
2022-06-27 11:59:44 GMT 63.382782 35.544151 35,000 165 487 0
2022-06-27 11:59:35 GMT 63.404057 35.531654 35,000 165 487 0
2022-06-27 11:59:25 GMT 63.425514 35.519020 35,000 165 487 0
2022-06-27 11:59:15 GMT 63.447628 35.506054 35,000 165 487 0
2022-06-27 11:59:04 GMT 63.470169 35.492813 35,000 165 487 0
2022-06-27 11:58:54 GMT 63.492504 35.479687 35,000 165 487 0
2022-06-27 11:58:44 GMT 63.514431 35.466614 35,000 165 487 0
2022-06-27 11:58:34 GMT 63.536316 35.453514 35,000 165 487 0
2022-06-27 11:58:24 GMT 63.559307 35.439697 35,000 165 487 0
2022-06-27 11:58:13 GMT 63.580994 35.426788 35,000 165 487 0
2022-06-27 11:58:03 GMT 63.603577 35.413109 35,000 164 487 0
2022-06-27 11:57:53 GMT 63.624619 35.400379 35,000 165 487 0
2022-06-27 11:57:42 GMT 63.647827 35.386436 35,000 165 487 0
2022-06-27 11:57:33 GMT 63.669727 35.373230 35,000 165 487 0
2022-06-27 11:57:22 GMT 63.691189 35.360374 35,025 165 487 0
2022-06-27 11:57:12 GMT 63.713951 35.346642 35,000 165 487 0
2022-06-27 11:57:01 GMT 63.736313 35.333195 35,000 165 487 0
2022-06-27 11:56:51 GMT 63.757782 35.320202 35,000 165 487 0
2022-06-27 11:56:42 GMT 63.779499 35.307091 35,000 165 487 0
2022-06-27 11:56:31 GMT 63.801819 35.293579 35,025 165 487 0
2022-06-27 11:56:21 GMT 63.823929 35.280163 35,000 164 486 0
2022-06-27 11:56:11 GMT 63.845810 35.266853 35,000 164 487 0
2022-06-27 11:56:00 GMT 63.869438 35.252380 35,000 164 486 0
2022-06-27 11:55:51 GMT 63.889801 35.239914 35,000 164 486 64
2022-06-27 11:55:40 GMT 63.913834 35.225338 35,000 164 486 64
2022-06-27 11:55:29 GMT 63.935532 35.212029 34,975 164 486 0
2022-06-27 11:55:20 GMT 63.956535 35.199207 34,975 164 486 0
2022-06-27 11:55:10 GMT 63.978149 35.185829 35,000 164 486 0
2022-06-27 11:55:00 GMT 64.000443 35.172199 35,000 164 486 0
2022-06-27 11:54:50 GMT 64.022507 35.158573 34,975 164 485 0
2022-06-27 11:54:39 GMT 64.044563 35.144936 34,975 164 485 0
2022-06-27 11:54:29 GMT 64.066818 35.131092 34,975 164 486 0
2022-06-27 11:54:18 GMT 64.089066 35.117271 34,975 164 485 0
2022-06-27 11:54:08 GMT 64.111511 35.103188 34,975 164 485 0
2022-06-27 11:53:59 GMT 64.133064 35.089561 34,975 164 485 0
2022-06-27 11:53:48 GMT 64.155029 35.075752 34,975 164 485 0
2022-06-27 11:53:38 GMT 64.177010 35.061768 35,000 164 485 -64
2022-06-27 11:53:27 GMT 64.199249 35.047867 35,000 164 485 0
2022-06-27 11:53:17 GMT 64.221451 35.034027 35,000 164 485 0
2022-06-27 11:53:08 GMT 64.243469 35.020187 35,000 164 486 0
2022-06-27 11:52:57 GMT 64.264618 35.006947 35,000 164 486 0
2022-06-27 11:52:46 GMT 64.288193 34.992115 35,025 164 486 -64
2022-06-27 11:52:36 GMT 64.309776 34.978523 35,025 164 486 0
2022-06-27 11:52:26 GMT 64.346504 34.955292 35,025 164 487 0
2022-06-27 11:52:16 GMT 64.357361 34.948387 35,025 164 487 0
2022-06-27 11:52:06 GMT 64.375076 34.937073 35,000 164 487 0
2022-06-27 11:51:56 GMT 64.404556 34.918285 35,000 164 487 0
2022-06-27 11:51:44 GMT 64.424248 34.905739 35,000 164 488 0
2022-06-27 11:51:34 GMT 64.445526 34.892139 35,025 164 488 0
2022-06-27 11:51:23 GMT 64.468689 34.877419 35,025 164 488 0
2022-06-27 11:51:16 GMT 64.486252 34.866142 35,025 164 488 0
2022-06-27 11:51:06 GMT 64.505341 34.853783 35,025 164 488 0
2022-06-27 11:51:04 GMT 64.511856 34.849621 35,025 164 488 0
2022-06-27 11:50:54 GMT 64.529877 34.838104 35,000 164 488 0
2022-06-27 11:50:49 GMT 64.542709 34.829845 35,000 164 489 0
2022-06-27 11:50:45 GMT 64.574844 34.809265 35,000 164 489 0
2022-06-27 11:50:34 GMT 64.574844 34.809265 35,000 164 489 0
2022-06-27 11:50:25 GMT 64.595718 34.796009 35,000 164 489 64
2022-06-27 11:50:14 GMT 64.618744 34.781113 35,000 164 489 0
2022-06-27 11:50:04 GMT 64.640015 34.767265 35,000 164 489 0
2022-06-27 11:49:54 GMT 64.662186 34.752831 35,000 164 489 64
2022-06-27 11:49:43 GMT 64.684525 34.738312 35,000 164 488 0
2022-06-27 11:49:34 GMT 64.706909 34.723778 35,000 164 488 0
2022-06-27 11:49:22 GMT 64.730347 34.708557 34,975 164 488 0
2022-06-27 11:49:12 GMT 64.751373 34.694824 35,000 164 489 0
2022-06-27 11:49:03 GMT 64.773056 34.680542 35,000 164 489 0
2022-06-27 11:48:53 GMT 64.796265 34.665161 35,000 164 489 0
2022-06-27 11:48:42 GMT 64.818405 34.650536 35,000 164 490 0
2022-06-27 11:48:32 GMT 64.839935 34.636375 35,000 164 490 0
2022-06-27 11:48:21 GMT 64.863373 34.620895 35,000 164 490 0
2022-06-27 11:48:12 GMT 64.885117 34.606606 35,000 164 490 0
2022-06-27 11:48:01 GMT 64.906624 34.592400 35,000 164 490 0
2022-06-27 11:47:51 GMT 64.929245 34.577492 35,000 164 490 0
2022-06-27 11:47:46 GMT 64.940094 34.570351 35,000 164 490 0
2022-06-27 11:47:41 GMT 64.951172 34.562988 35,000 164 490 0
2022-06-27 11:47:37 GMT 64.960098 34.557056 35,000 164 490 0
2022-06-27 11:47:30 GMT 64.973145 34.548374 35,000 164 490 0
2022-06-27 11:47:27 GMT 64.982483 34.542114 35,000 164 490 0
2022-06-27 11:47:21 GMT 64.995758 34.533215 35,000 164 490 0
2022-06-27 11:47:17 GMT 65.002708 34.528542 35,000 164 490 0
2022-06-27 11:47:10 GMT 65.018349 34.518013 35,000 164 490 0
2022-06-27 11:47:00 GMT 65.039658 34.503773 35,000 164 491 -64
2022-06-27 11:46:49 GMT 65.062500 34.488503 35,000 164 491 0
2022-06-27 11:46:46 GMT 65.071472 34.482567 35,000 164 491 0
2022-06-27 11:46:39 GMT 65.084076 34.474182 35,000 164 491 0
2022-06-27 11:46:30 GMT 65.106979 34.459190 35,000 164 492 0
2022-06-27 11:46:19 GMT 65.128326 34.444996 35,000 164 492 0
2022-06-27 11:46:08 GMT 65.152130 34.429176 35,000 164 492 0
2022-06-27 11:45:58 GMT 65.174156 34.414444 35,000 164 492 0
2022-06-27 11:45:48 GMT 65.195526 34.399952 35,000 164 492 0
2022-06-27 11:45:39 GMT 65.217545 34.385033 35,000 164 492 0
2022-06-27 11:45:28 GMT 65.240250 34.369518 35,000 164 492 0
2022-06-27 11:45:18 GMT 65.262466 34.354362 35,000 163 493 0
2022-06-27 11:45:08 GMT 65.285156 34.338867 35,000 164 492 0
2022-06-27 11:44:56 GMT 65.309830 34.322060 35,000 164 492 0
2022-06-27 11:44:36 GMT 65.354324 34.291649 35,000 163 493 0
2022-06-27 11:44:27 GMT 65.373306 34.278538 35,000 163 493 0
2022-06-27 11:44:17 GMT 65.395569 34.263039 35,000 163 493 -64
2022-06-27 11:44:12 GMT 65.406738 34.255371 35,000 163 493 0
2022-06-27 11:44:06 GMT 65.418274 34.247372 35,000 163 493 0
2022-06-27 11:43:57 GMT 65.440796 34.231911 35,000 163 493 0
2022-06-27 11:43:46 GMT 65.462830 34.216679 35,000 163 493 0
2022-06-27 11:43:42 GMT 65.472244 34.210167 35,000 163 493 0
2022-06-27 11:43:36 GMT 65.484474 34.201752 35,000 163 493 0
2022-06-27 11:43:31 GMT 65.495598 34.193993 35,000 163 493 0
2022-06-27 11:43:25 GMT 65.507843 34.185631 35,000 163 493 0
2022-06-27 11:43:15 GMT 65.530563 34.169987 35,000 163 493 0
2022-06-27 11:43:09 GMT 65.544296 34.160385 35,000 163 493 0
2022-06-27 11:43:06 GMT 65.551071 34.155693 35,000 163 493 0
2022-06-27 11:43:02 GMT 65.560265 34.149330 35,000 163 493 0
2022-06-27 11:42:59 GMT 65.566589 34.144936 35,000 163 493 0
2022-06-27 11:42:55 GMT 65.573364 34.140244 35,000 163 493 0
2022-06-27 11:42:51 GMT 65.584305 34.132576 35,000 163 493 0
2022-06-27 11:42:45 GMT 65.596298 34.124107 35,000 163 493 0
2022-06-27 11:42:40 GMT 65.606766 34.116730 35,000 163 493 0
2022-06-27 11:42:34 GMT 65.619644 34.107628 35,000 163 493 0
2022-06-27 11:42:30 GMT 65.628159 34.101677 35,000 163 493 0
2022-06-27 11:42:20 GMT 65.650635 34.085884 35,000 163 493 0
2022-06-27 11:42:11 GMT 65.673569 34.069862 35,000 163 493 0
2022-06-27 11:41:59 GMT 65.695633 34.054276 35,000 163 493 0
2022-06-27 11:41:50 GMT 65.717468 34.038963 35,000 163 493 0
2022-06-27 11:41:39 GMT 65.741486 34.022030 35,000 163 493 0
2022-06-27 11:41:30 GMT 65.761185 34.008060 35,000 163 494 0
2022-06-27 11:41:20 GMT 65.784302 33.991699 35,000 163 494 0
2022-06-27 11:41:09 GMT 65.806198 33.976295 35,000 163 494 0
2022-06-27 11:40:55 GMT 65.837433 33.954082 35,000 163 493 -64
2022-06-27 11:40:48 GMT 65.851402 33.944054 35,025 163 493 0
2022-06-27 11:40:38 GMT 65.873657 33.928185 35,025 163 493 0
2022-06-27 11:40:26 GMT 65.899658 33.909531 35,000 163 493 0
2022-06-27 11:40:03 GMT 65.949440 33.873837 35,025 163 493 0
2022-06-27 11:39:49 GMT 65.981323 33.850906 35,000 163 493 0
2022-06-27 11:39:40 GMT 66.003113 33.835258 35,000 163 493 0
2022-06-27 11:39:21 GMT 66.041939 33.807201 35,000 163 493 64
2022-06-27 11:38:47 GMT 66.115395 33.753223 35,000 163 492 0
2022-06-27 11:38:45 GMT 66.121948 33.748512 35,000 163 493 0
2022-06-27 11:38:24 GMT 66.168701 33.713818 35,000 163 492 0
2022-06-27 11:38:22 GMT 66.170654 33.712349 35,000 163 492 0
2022-06-27 11:38:15 GMT 66.185226 33.701515 35,000 163 492 0
2022-06-27 11:37:58 GMT 66.223679 33.672977 35,000 163 492 0
2022-06-27 11:37:51 GMT 66.238014 33.662468 35,000 163 492 0
2022-06-27 11:37:38 GMT 66.264320 33.643242 35,000 163 492 0
2022-06-27 11:37:15 GMT 66.317917 33.605576 35,000 164 491 0
2022-06-27 11:37:09 GMT 66.329041 33.597908 35,000 164 491 0
2022-06-27 11:37:00 GMT 66.349777 33.583717 35,000 164 491 0
2022-06-27 11:36:50 GMT 66.373123 33.567768 35,000 164 491 0
2022-06-27 11:36:37 GMT 66.398209 33.550453 35,000 164 491 0
2022-06-27 11:34:37 GMT 66.660851 33.365604 34,775 164 496 1088
2022-06-27 11:34:33 GMT 66.671448 33.358074 34,700 164 496 1024
2022-06-27 11:34:23 GMT 66.691017 33.344131 34,550 164 497 1152
2022-06-27 11:34:12 GMT 66.714432 33.327503 34,325 164 497 1152
2022-06-27 11:34:02 GMT 66.736267 33.311859 34,150 164 497 1152
2022-06-27 11:33:52 GMT 66.759430 33.295261 33,950 164 497 1152
2022-06-27 11:33:43 GMT 66.781494 33.279499 33,750 164 497 1216
2022-06-27 11:33:32 GMT 66.803787 33.263496 33,550 164 497 1024
2022-06-27 11:33:21 GMT 66.827179 33.246658 33,375 164 496 1024
2022-06-27 11:33:11 GMT 66.849152 33.230770 33,200 164 496 1152
2022-06-27 11:33:02 GMT 66.871399 33.214657 33,000 164 496 1280
2022-06-27 11:32:50 GMT 66.895149 33.197563 32,750 164 496 1536
2022-06-27 11:32:40 GMT 66.917221 33.181576 32,500 164 498 1472
2022-06-27 11:32:31 GMT 66.938858 33.165852 32,275 163 499 1344
2022-06-27 11:32:21 GMT 66.961624 33.149216 32,050 164 499 1280
2022-06-27 11:32:09 GMT 66.985924 33.131393 31,775 164 500 1536
2022-06-27 11:31:59 GMT 67.007858 33.115421 31,550 163 500 1472
2022-06-27 11:31:49 GMT 67.030006 33.099186 31,300 164 501 1408
2022-06-27 11:31:39 GMT 67.054214 33.081455 31,050 164 501 1280
2022-06-27 11:31:29 GMT 67.076424 33.065102 30,825 164 501 1344
2022-06-27 11:31:19 GMT 67.098175 33.049023 30,600 163 501 1344
2022-06-27 11:30:55 GMT 67.151184 33.009922 30,075 163 500 1472
2022-06-27 11:30:47 GMT 67.171158 32.995064 29,825 163 501 1728
2022-06-27 11:30:38 GMT 67.189362 32.981552 29,600 163 502 1536
2022-06-27 11:30:27 GMT 67.211845 32.964851 29,350 163 502 1472
2022-06-27 11:30:15 GMT 67.239166 32.944534 29,075 163 501 1280
2022-06-27 11:30:04 GMT 67.267097 32.923653 28,800 163 500 1408
2022-06-27 11:29:57 GMT 67.279037 32.914680 28,675 163 500 1408
2022-06-27 11:29:47 GMT 67.302010 32.897312 28,450 163 499 1024
2022-06-27 11:29:36 GMT 67.324677 32.880169 28,300 163 495 768
2022-06-27 11:29:26 GMT 67.347404 32.862728 28,125 163 492 1216
2022-06-27 11:29:14 GMT 67.373062 32.843033 27,875 164 491 1408
2022-06-27 11:29:05 GMT 67.392929 32.828941 27,650 166 490 1408
2022-06-27 11:28:56 GMT 67.413788 32.816162 27,450 168 487 896
2022-06-27 11:28:45 GMT 67.437469 32.804050 27,325 170 482 576
2022-06-27 11:28:36 GMT 67.458893 32.795105 27,200 172 477 960
2022-06-27 11:28:25 GMT 67.481964 32.787575 27,000 174 474 1280
2022-06-27 11:28:14 GMT 67.503906 32.782417 26,750 176 472 1472
2022-06-27 11:28:04 GMT 67.526505 32.779331 26,500 178 470 1408
2022-06-27 11:27:55 GMT 67.548973 32.778103 26,275 179 468 1408
2022-06-27 11:27:43 GMT 67.572205 32.777187 26,000 179 466 1600
2022-06-27 11:27:33 GMT 67.592789 32.776463 25,750 179 465 1600
2022-06-27 11:27:23 GMT 67.614212 32.775589 25,500 179 464 1600
2022-06-27 11:27:12 GMT 67.637283 32.774700 25,225 179 463 1408
2022-06-27 11:27:04 GMT 67.657059 32.773842 25,000 179 460 1600
2022-06-27 11:26:47 GMT 67.690109 32.772591 24,700 179 459 1536
2022-06-27 11:26:42 GMT 67.702744 32.772091 24,425 179 457 1728
2022-06-27 11:26:30 GMT 67.726318 32.771217 24,100 179 456 1728
2022-06-27 11:26:23 GMT 67.743752 32.770645 23,875 179 454 1536
2022-06-27 11:26:12 GMT 67.764587 32.769844 23,625 179 452 1536
2022-06-27 11:26:02 GMT 67.785599 32.768948 23,375 179 449 1472
2022-06-27 11:25:51 GMT 67.807663 32.768162 23,075 179 447 1600
2022-06-27 11:24:43 GMT 67.945229 32.762276 21,250 179 435 1792
2022-06-27 11:24:40 GMT 67.951996 32.762104 20,950 179 432 1728
2022-06-27 11:24:30 GMT 67.972458 32.761604 20,650 179 429 1728
2022-06-27 11:24:19 GMT 67.992783 32.761356 20,350 179 426 1856
2022-06-27 11:24:10 GMT 68.012772 32.761101 20,025 179 424 1856
2022-06-27 11:23:59 GMT 68.032654 32.760857 19,725 179 421 1856
2022-06-27 11:23:49 GMT 68.052383 32.760605 19,400 179 418 2176
2022-06-27 11:23:32 GMT 68.085251 32.760105 19,025 179 416 2048
2022-06-27 11:23:29 GMT 68.091522 32.760105 18,700 179 414 1856
2022-06-27 11:23:18 GMT 68.111710 32.759857 18,375 179 410 1856
2022-06-27 11:22:08 GMT 68.241898 32.757984 16,050 179 398 2496
2022-06-27 11:22:07 GMT 68.244095 32.757984 15,650 179 396 2496
2022-06-27 11:21:33 GMT 68.305252 32.755985 14,425 180 357 2496
2022-06-27 11:20:49 GMT 68.383141 32.752861 12,725 181 349 2368
2022-06-27 11:20:45 GMT 68.389473 32.752991 12,325 181 373 2496
2022-06-27 11:20:33 GMT 68.410187 32.754299 11,875 183 369 2752
2022-06-27 11:20:19 GMT 68.435486 32.757439 11,425 183 342 2304
2022-06-27 11:20:13 GMT 68.442963 32.758347 11,075 183 356 1472
2022-06-27 11:18:39 GMT 68.581406 32.772217 7,750 182 279 2688
2022-06-27 11:18:32 GMT 68.590530 32.772903 7,300 182 288 2816
2022-06-27 11:18:21 GMT 68.604446 32.773918 6,775 182 285 3072
2022-06-27 11:18:12 GMT 68.617859 32.774700 6,250 182 281 3008
2022-06-27 11:18:01 GMT 68.630630 32.775227 5,750 181 276 2944
2022-06-27 11:17:51 GMT 68.643791 32.775513 5,225 181 272 3136
2022-06-27 11:17:40 GMT 68.657181 32.775879 4,700 181 267 2496
2022-06-27 11:17:30 GMT 68.669907 32.776337 4,350 182 254 1664
2022-06-27 11:17:19 GMT 68.681541 32.777435 4,125 183 238 1472
2022-06-27 11:17:10 GMT 68.692154 32.778946 3,950 184 219 384

Making use of Plane Finder data

You are free to use the raw flight data, aircraft information and images provided in this report for your own purposes provided the data is correctly attributed to Plane Finder. We ask that you please credit Plane Finder and link to planefinder.net in close proximity to the content.

Optionally one of the following logos (no smaller then 150x24px) can be used and must link to planefinder.net

Embedding the Plane Finder map

You are welcome to embed the Plane Finder playback map on your website to offer visitors a more interactive experience. We suggest using the following HTML code:

<iframe src="//planefinder.net/data/report/SU1321-RA-73176-7700-squawk-2022-06-27/map" width="800" height="600" seamless="seamless"></iframe>

Where our data comes from

Plane Finder has a global network of data feeds and antenna radars that receive data broadcast directly from aircraft. The primary technologies used are ADS-B and MLAT. We also show feeds from the FAA and a FLARM glider feed.

Click here to find out more about the Plane Finder network.

How we collect our data